sensor_id;sensor_type;location;lat;lon;timestamp;temperature;humidity
26408;DHT22;14583;43.604;1.364;2022-09-17T00:01:00;19.90;80.60
26408;DHT22;14583;43.604;1.364;2022-09-17T00:03:26;19.90;80.70
26408;DHT22;14583;43.604;1.364;2022-09-17T00:06:19;19.90;80.70
26408;DHT22;14583;43.604;1.364;2022-09-17T00:08:45;19.80;80.40
26408;DHT22;14583;43.604;1.364;2022-09-17T00:11:20;19.70;80.90
26408;DHT22;14583;43.604;1.364;2022-09-17T00:13:47;19.60;80.80
26408;DHT22;14583;43.604;1.364;2022-09-17T00:16:24;19.70;80.90
26408;DHT22;14583;43.604;1.364;2022-09-17T00:18:50;19.70;80.80
26408;DHT22;14583;43.604;1.364;2022-09-17T00:21:17;19.60;81.00
26408;DHT22;14583;43.604;1.364;2022-09-17T00:26:18;19.60;81.00
26408;DHT22;14583;43.604;1.364;2022-09-17T00:28:48;19.50;81.10
26408;DHT22;14583;43.604;1.364;2022-09-17T00:31:14;19.40;81.00
26408;DHT22;14583;43.604;1.364;2022-09-17T00:33:40;19.40;81.60
26408;DHT22;14583;43.604;1.364;2022-09-17T00:36:06;19.40;80.90
26408;DHT22;14583;43.604;1.364;2022-09-17T00:38:33;19.30;81.40
26408;DHT22;14583;43.604;1.364;2022-09-17T00:40:59;19.30;81.40
26408;DHT22;14583;43.604;1.364;2022-09-17T00:43:47;19.30;81.40
26408;DHT22;14583;43.604;1.364;2022-09-17T00:46:28;19.30;81.60
26408;DHT22;14583;43.604;1.364;2022-09-17T00:48:58;19.30;81.60
26408;DHT22;14583;43.604;1.364;2022-09-17T00:51:33;19.20;81.60
26408;DHT22;14583;43.604;1.364;2022-09-17T00:54:02;19.10;81.90
26408;DHT22;14583;43.604;1.364;2022-09-17T00:56:31;19.00;83.00
26408;DHT22;14583;43.604;1.364;2022-09-17T00:59:00;19.00;82.50
26408;DHT22;14583;43.604;1.364;2022-09-17T01:01:26;19.00;82.50
26408;DHT22;14583;43.604;1.364;2022-09-17T01:03:51;18.90;82.60
26408;DHT22;14583;43.604;1.364;2022-09-17T01:14:27;18.90;82.90
26408;DHT22;14583;43.604;1.364;2022-09-17T01:30:15;18.60;83.50
26408;DHT22;14583;43.604;1.364;2022-09-17T01:32:45;18.60;83.70
26408;DHT22;14583;43.604;1.364;2022-09-17T01:38:08;18.60;83.90
26408;DHT22;14583;43.604;1.364;2022-09-17T01:40:51;18.60;83.90
26408;DHT22;14583;43.604;1.364;2022-09-17T01:45:50;18.30;84.80
26408;DHT22;14583;43.604;1.364;2022-09-17T01:48:18;18.30;85.40
26408;DHT22;14583;43.604;1.364;2022-09-17T01:51:04;18.30;85.40
26408;DHT22;14583;43.604;1.364;2022-09-17T01:53:54;18.30;85.50
26408;DHT22;14583;43.604;1.364;2022-09-17T01:56:25;18.50;85.60
26408;DHT22;14583;43.604;1.364;2022-09-17T01:59:28;18.60;85.40
26408;DHT22;14583;43.604;1.364;2022-09-17T02:02:09;18.60;85.70
26408;DHT22;14583;43.604;1.364;2022-09-17T02:04:42;18.60;85.90
26408;DHT22;14583;43.604;1.364;2022-09-17T02:07:17;18.60;86.30
26408;DHT22;14583;43.604;1.364;2022-09-17T02:09:52;18.60;86.10
26408;DHT22;14583;43.604;1.364;2022-09-17T02:12:24;18.60;86.10
26408;DHT22;14583;43.604;1.364;2022-09-17T02:14:53;18.70;85.90
26408;DHT22;14583;43.604;1.364;2022-09-17T02:20:16;18.70;86.80
26408;DHT22;14583;43.604;1.364;2022-09-17T02:22:48;18.60;86.90
26408;DHT22;14583;43.604;1.364;2022-09-17T02:25:43;18.60;87.90
26408;DHT22;14583;43.604;1.364;2022-09-17T02:28:36;18.50;88.10
26408;DHT22;14583;43.604;1.364;2022-09-17T02:31:04;18.50;88.50
26408;DHT22;14583;43.604;1.364;2022-09-17T02:33:32;18.50;88.70
26408;DHT22;14583;43.604;1.364;2022-09-17T02:35:59;18.40;89.00
26408;DHT22;14583;43.604;1.364;2022-09-17T02:38:28;18.30;89.30
26408;DHT22;14583;43.604;1.364;2022-09-17T02:43:28;18.40;89.80
26408;DHT22;14583;43.604;1.364;2022-09-17T02:46:23;18.30;90.20
26408;DHT22;14583;43.604;1.364;2022-09-17T02:51:52;18.20;90.50
26408;DHT22;14583;43.604;1.364;2022-09-17T02:54:30;18.30;90.30
26408;DHT22;14583;43.604;1.364;2022-09-17T02:58:04;18.30;90.50
26408;DHT22;14583;43.604;1.364;2022-09-17T03:00:17;18.20;90.60
26408;DHT22;14583;43.604;1.364;2022-09-17T03:05:37;18.30;90.50
26408;DHT22;14583;43.604;1.364;2022-09-17T03:08:08;18.20;90.70
26408;DHT22;14583;43.604;1.364;2022-09-17T03:10:34;18.00;91.10
26408;DHT22;14583;43.604;1.364;2022-09-17T03:12:59;18.10;91.10
26408;DHT22;14583;43.604;1.364;2022-09-17T03:15:25;18.10;91.10
26408;DHT22;14583;43.604;1.364;2022-09-17T03:17:51;18.10;91.00
26408;DHT22;14583;43.604;1.364;2022-09-17T03:20:16;18.00;91.20
26408;DHT22;14583;43.604;1.364;2022-09-17T03:22:43;18.20;90.90
26408;DHT22;14583;43.604;1.364;2022-09-17T03:25:10;18.20;90.80
26408;DHT22;14583;43.604;1.364;2022-09-17T03:27:35;18.20;90.90
26408;DHT22;14583;43.604;1.364;2022-09-17T03:30:01;18.10;91.00
26408;DHT22;14583;43.604;1.364;2022-09-17T03:32:27;18.20;91.00
26408;DHT22;14583;43.604;1.364;2022-09-17T03:34:52;18.20;90.80
26408;DHT22;14583;43.604;1.364;2022-09-17T03:37:19;18.20;90.90
26408;DHT22;14583;43.604;1.364;2022-09-17T03:39:44;18.10;91.00
26408;DHT22;14583;43.604;1.364;2022-09-17T03:42:10;18.00;91.30
26408;DHT22;14583;43.604;1.364;2022-09-17T03:44:36;18.00;91.30
26408;DHT22;14583;43.604;1.364;2022-09-17T03:47:02;18.10;91.10
26408;DHT22;14583;43.604;1.364;2022-09-17T03:49:27;17.90;91.40
26408;DHT22;14583;43.604;1.364;2022-09-17T03:51:53;17.90;91.40
26408;DHT22;14583;43.604;1.364;2022-09-17T03:54:18;17.90;91.40
26408;DHT22;14583;43.604;1.364;2022-09-17T03:56:44;17.90;91.60
26408;DHT22;14583;43.604;1.364;2022-09-17T03:59:10;17.80;91.60
26408;DHT22;14583;43.604;1.364;2022-09-17T04:01:35;17.90;91.50
26408;DHT22;14583;43.604;1.364;2022-09-17T04:04:02;17.90;91.50
26408;DHT22;14583;43.604;1.364;2022-09-17T04:06:28;17.90;91.70
26408;DHT22;14583;43.604;1.364;2022-09-17T04:08:54;17.80;91.70
26408;DHT22;14583;43.604;1.364;2022-09-17T04:11:21;17.70;91.80
26408;DHT22;14583;43.604;1.364;2022-09-17T04:13:47;17.80;91.70
26408;DHT22;14583;43.604;1.364;2022-09-17T04:16:13;17.80;91.70
26408;DHT22;14583;43.604;1.364;2022-09-17T04:18:38;17.80;91.60
26408;DHT22;14583;43.604;1.364;2022-09-17T04:21:04;17.70;91.70
26408;DHT22;14583;43.604;1.364;2022-09-17T04:23:30;17.80;91.80
26408;DHT22;14583;43.604;1.364;2022-09-17T04:25:56;17.70;91.80
26408;DHT22;14583;43.604;1.364;2022-09-17T04:28:21;17.80;91.70
26408;DHT22;14583;43.604;1.364;2022-09-17T04:30:47;17.90;91.60
26408;DHT22;14583;43.604;1.364;2022-09-17T04:33:14;17.90;91.70
26408;DHT22;14583;43.604;1.364;2022-09-17T04:35:39;17.80;91.70
26408;DHT22;14583;43.604;1.364;2022-09-17T04:38:05;17.70;91.70
26408;DHT22;14583;43.604;1.364;2022-09-17T04:40:31;17.60;92.00
26408;DHT22;14583;43.604;1.364;2022-09-17T04:42:58;17.50;92.20
26408;DHT22;14583;43.604;1.364;2022-09-17T04:45:24;17.60;92.10
26408;DHT22;14583;43.604;1.364;2022-09-17T04:47:50;17.60;92.20
26408;DHT22;14583;43.604;1.364;2022-09-17T04:50:20;17.60;92.30
26408;DHT22;14583;43.604;1.364;2022-09-17T04:52:46;17.60;92.30
26408;DHT22;14583;43.604;1.364;2022-09-17T04:55:13;17.50;92.40
26408;DHT22;14583;43.604;1.364;2022-09-17T04:57:44;17.60;92.40
26408;DHT22;14583;43.604;1.364;2022-09-17T05:00:10;17.60;92.30
26408;DHT22;14583;43.604;1.364;2022-09-17T05:02:35;17.60;92.50
26408;DHT22;14583;43.604;1.364;2022-09-17T05:05:01;17.70;92.40
26408;DHT22;14583;43.604;1.364;2022-09-17T05:07:27;17.70;92.40
26408;DHT22;14583;43.604;1.364;2022-09-17T05:09:52;17.70;92.30
26408;DHT22;14583;43.604;1.364;2022-09-17T05:12:18;17.60;92.40
26408;DHT22;14583;43.604;1.364;2022-09-17T05:14:44;17.70;92.40
26408;DHT22;14583;43.604;1.364;2022-09-17T05:17:10;17.70;92.40
26408;DHT22;14583;43.604;1.364;2022-09-17T05:19:35;17.60;92.50
26408;DHT22;14583;43.604;1.364;2022-09-17T05:22:01;17.60;92.50
26408;DHT22;14583;43.604;1.364;2022-09-17T05:24:27;17.50;92.50
26408;DHT22;14583;43.604;1.364;2022-09-17T05:26:53;17.60;92.40
26408;DHT22;14583;43.604;1.364;2022-09-17T05:29:19;17.60;92.40
26408;DHT22;14583;43.604;1.364;2022-09-17T05:31:44;17.60;92.50
26408;DHT22;14583;43.604;1.364;2022-09-17T05:34:10;17.60;92.40
26408;DHT22;14583;43.604;1.364;2022-09-17T05:36:36;17.60;92.50
26408;DHT22;14583;43.604;1.364;2022-09-17T05:39:02;17.50;92.70
26408;DHT22;14583;43.604;1.364;2022-09-17T05:41:27;17.50;92.60
26408;DHT22;14583;43.604;1.364;2022-09-17T05:43:54;17.60;92.50
26408;DHT22;14583;43.604;1.364;2022-09-17T05:46:19;17.50;92.60
26408;DHT22;14583;43.604;1.364;2022-09-17T05:48:45;17.60;92.50
26408;DHT22;14583;43.604;1.364;2022-09-17T05:51:11;17.60;92.60
26408;DHT22;14583;43.604;1.364;2022-09-17T05:53:37;17.50;92.50
26408;DHT22;14583;43.604;1.364;2022-09-17T05:56:03;17.50;92.70
26408;DHT22;14583;43.604;1.364;2022-09-17T05:58:29;17.40;92.70
26408;DHT22;14583;43.604;1.364;2022-09-17T06:01:00;17.30;93.00
26408;DHT22;14583;43.604;1.364;2022-09-17T06:03:25;17.40;93.00
26408;DHT22;14583;43.604;1.364;2022-09-17T06:05:56;17.50;92.70
26408;DHT22;14583;43.604;1.364;2022-09-17T06:08:24;17.50;92.60
26408;DHT22;14583;43.604;1.364;2022-09-17T06:10:50;17.50;92.50
26408;DHT22;14583;43.604;1.364;2022-09-17T06:13:19;17.50;92.60
26408;DHT22;14583;43.604;1.364;2022-09-17T06:15:50;17.40;92.60
26408;DHT22;14583;43.604;1.364;2022-09-17T06:18:16;17.40;92.70
26408;DHT22;14583;43.604;1.364;2022-09-17T06:20:41;17.40;92.80
26408;DHT22;14583;43.604;1.364;2022-09-17T06:23:07;17.50;92.80
26408;DHT22;14583;43.604;1.364;2022-09-17T06:25:33;17.60;92.60
26408;DHT22;14583;43.604;1.364;2022-09-17T06:28:01;17.50;92.70
26408;DHT22;14583;43.604;1.364;2022-09-17T06:30:27;17.60;92.70
26408;DHT22;14583;43.604;1.364;2022-09-17T06:32:53;17.60;92.50
26408;DHT22;14583;43.604;1.364;2022-09-17T06:35:19;17.60;92.60
26408;DHT22;14583;43.604;1.364;2022-09-17T06:37:47;17.50;92.70
26408;DHT22;14583;43.604;1.364;2022-09-17T06:40:13;17.60;92.70
26408;DHT22;14583;43.604;1.364;2022-09-17T06:42:39;17.50;92.80
26408;DHT22;14583;43.604;1.364;2022-09-17T06:45:06;17.50;92.80
26408;DHT22;14583;43.604;1.364;2022-09-17T06:47:32;17.40;92.80
26408;DHT22;14583;43.604;1.364;2022-09-17T06:49:57;17.50;92.80
26408;DHT22;14583;43.604;1.364;2022-09-17T06:52:24;17.30;93.00
26408;DHT22;14583;43.604;1.364;2022-09-17T06:54:50;17.50;92.90
26408;DHT22;14583;43.604;1.364;2022-09-17T06:57:15;17.50;92.90
26408;DHT22;14583;43.604;1.364;2022-09-17T06:59:41;17.60;92.80
26408;DHT22;14583;43.604;1.364;2022-09-17T07:02:08;17.50;93.20
26408;DHT22;14583;43.604;1.364;2022-09-17T07:04:33;17.40;93.20
26408;DHT22;14583;43.604;1.364;2022-09-17T07:06:59;17.40;93.20
26408;DHT22;14583;43.604;1.364;2022-09-17T07:09:25;17.40;93.20
26408;DHT22;14583;43.604;1.364;2022-09-17T07:11:51;17.50;93.30
26408;DHT22;14583;43.604;1.364;2022-09-17T07:14:16;17.60;93.20
26408;DHT22;14583;43.604;1.364;2022-09-17T07:16:43;17.60;93.30
26408;DHT22;14583;43.604;1.364;2022-09-17T07:19:10;17.50;93.50
26408;DHT22;14583;43.604;1.364;2022-09-17T07:21:36;17.50;93.40
26408;DHT22;14583;43.604;1.364;2022-09-17T07:24:01;17.70;93.10
26408;DHT22;14583;43.604;1.364;2022-09-17T07:26:28;17.70;92.80
26408;DHT22;14583;43.604;1.364;2022-09-17T07:28:53;17.70;92.70
26408;DHT22;14583;43.604;1.364;2022-09-17T07:31:19;17.70;92.70
26408;DHT22;14583;43.604;1.364;2022-09-17T07:33:44;17.60;92.80
26408;DHT22;14583;43.604;1.364;2022-09-17T07:36:12;17.70;92.70
26408;DHT22;14583;43.604;1.364;2022-09-17T07:38:38;17.70;92.70
26408;DHT22;14583;43.604;1.364;2022-09-17T07:41:06;17.70;92.70
26408;DHT22;14583;43.604;1.364;2022-09-17T07:43:34;17.70;92.60
26408;DHT22;14583;43.604;1.364;2022-09-17T07:46:02;17.80;92.70
26408;DHT22;14583;43.604;1.364;2022-09-17T07:48:28;17.80;92.70
26408;DHT22;14583;43.604;1.364;2022-09-17T07:50:55;17.90;92.60
26408;DHT22;14583;43.604;1.364;2022-09-17T07:53:21;17.90;92.50
26408;DHT22;14583;43.604;1.364;2022-09-17T07:55:53;18.00;92.50
26408;DHT22;14583;43.604;1.364;2022-09-17T07:58:20;18.00;92.50
26408;DHT22;14583;43.604;1.364;2022-09-17T08:00:46;18.10;92.20
26408;DHT22;14583;43.604;1.364;2022-09-17T08:03:12;18.20;91.80
26408;DHT22;14583;43.604;1.364;2022-09-17T08:05:38;18.20;91.60
26408;DHT22;14583;43.604;1.364;2022-09-17T08:08:04;18.20;91.60
26408;DHT22;14583;43.604;1.364;2022-09-17T08:10:29;18.20;91.50
26408;DHT22;14583;43.604;1.364;2022-09-17T08:12:56;18.30;91.70
26408;DHT22;14583;43.604;1.364;2022-09-17T08:15:22;18.30;91.70
26408;DHT22;14583;43.604;1.364;2022-09-17T08:17:49;18.30;91.50
26408;DHT22;14583;43.604;1.364;2022-09-17T08:20:16;18.20;91.80
26408;DHT22;14583;43.604;1.364;2022-09-17T08:22:42;18.10;91.70
26408;DHT22;14583;43.604;1.364;2022-09-17T08:25:08;18.20;91.80
26408;DHT22;14583;43.604;1.364;2022-09-17T08:27:35;18.20;91.80
26408;DHT22;14583;43.604;1.364;2022-09-17T08:30:03;18.30;91.60
26408;DHT22;14583;43.604;1.364;2022-09-17T08:32:29;18.40;91.50
26408;DHT22;14583;43.604;1.364;2022-09-17T08:34:55;18.40;91.20
26408;DHT22;14583;43.604;1.364;2022-09-17T08:37:21;18.40;91.10
26408;DHT22;14583;43.604;1.364;2022-09-17T08:39:47;18.40;90.80
26408;DHT22;14583;43.604;1.364;2022-09-17T08:42:38;18.50;90.90
26408;DHT22;14583;43.604;1.364;2022-09-17T08:45:10;18.50;90.70
26408;DHT22;14583;43.604;1.364;2022-09-17T08:47:39;18.50;90.80
26408;DHT22;14583;43.604;1.364;2022-09-17T08:50:31;18.60;90.80
26408;DHT22;14583;43.604;1.364;2022-09-17T09:01:57;18.70;90.10
26408;DHT22;14583;43.604;1.364;2022-09-17T09:07:36;18.70;90.00
26408;DHT22;14583;43.604;1.364;2022-09-17T09:12:50;18.80;87.50
26408;DHT22;14583;43.604;1.364;2022-09-17T09:18:11;18.80;87.60
26408;DHT22;14583;43.604;1.364;2022-09-17T09:26:17;19.00;85.90
26408;DHT22;14583;43.604;1.364;2022-09-17T09:34:28;19.10;82.80
26408;DHT22;14583;43.604;1.364;2022-09-17T09:37:04;19.10;82.70
26408;DHT22;14583;43.604;1.364;2022-09-17T09:39:36;19.10;82.10
26408;DHT22;14583;43.604;1.364;2022-09-17T09:42:13;19.00;82.30
26408;DHT22;14583;43.604;1.364;2022-09-17T09:44:40;19.00;83.60
26408;DHT22;14583;43.604;1.364;2022-09-17T09:53:06;19.20;76.50
26408;DHT22;14583;43.604;1.364;2022-09-17T09:58:42;19.20;80.10
26408;DHT22;14583;43.604;1.364;2022-09-17T10:01:18;19.20;79.20
26408;DHT22;14583;43.604;1.364;2022-09-17T10:03:45;19.20;79.10
26408;DHT22;14583;43.604;1.364;2022-09-17T10:06:12;19.30;78.50
26408;DHT22;14583;43.604;1.364;2022-09-17T10:08:40;19.30;79.30
26408;DHT22;14583;43.604;1.364;2022-09-17T10:13:35;19.30;78.70
26408;DHT22;14583;43.604;1.364;2022-09-17T10:16:22;19.30;77.70
26408;DHT22;14583;43.604;1.364;2022-09-17T10:19:15;19.40;77.60
26408;DHT22;14583;43.604;1.364;2022-09-17T10:21:43;19.40;77.10
26408;DHT22;14583;43.604;1.364;2022-09-17T10:24:24;19.40;76.90
26408;DHT22;14583;43.604;1.364;2022-09-17T10:26:59;19.50;76.40
26408;DHT22;14583;43.604;1.364;2022-09-17T10:29:26;19.50;75.90
26408;DHT22;14583;43.604;1.364;2022-09-17T10:31:53;19.50;75.30
26408;DHT22;14583;43.604;1.364;2022-09-17T10:34:25;19.30;74.80
26408;DHT22;14583;43.604;1.364;2022-09-17T10:36:51;19.30;75.70
26408;DHT22;14583;43.604;1.364;2022-09-17T10:39:31;19.30;77.50
26408;DHT22;14583;43.604;1.364;2022-09-17T10:42:18;19.40;77.70
26408;DHT22;14583;43.604;1.364;2022-09-17T10:45:10;19.60;75.70
26408;DHT22;14583;43.604;1.364;2022-09-17T10:47:47;19.50;74.20
26408;DHT22;14583;43.604;1.364;2022-09-17T10:50:18;19.40;74.80
26408;DHT22;14583;43.604;1.364;2022-09-17T10:52:49;19.40;75.10
26408;DHT22;14583;43.604;1.364;2022-09-17T10:57:58;19.60;75.50
26408;DHT22;14583;43.604;1.364;2022-09-17T11:00:33;19.50;72.60
26408;DHT22;14583;43.604;1.364;2022-09-17T11:16:57;19.70;72.00
26408;DHT22;14583;43.604;1.364;2022-09-17T11:27:33;19.80;71.20
26408;DHT22;14583;43.604;1.364;2022-09-17T11:30:18;19.70;71.80
26408;DHT22;14583;43.604;1.364;2022-09-17T11:35:36;19.90;70.40
26408;DHT22;14583;43.604;1.364;2022-09-17T11:41:15;19.90;69.90
26408;DHT22;14583;43.604;1.364;2022-09-17T11:46:43;20.00;70.90
26408;DHT22;14583;43.604;1.364;2022-09-17T11:51:49;20.10;70.00
26408;DHT22;14583;43.604;1.364;2022-09-17T11:54:51;20.10;69.00
26408;DHT22;14583;43.604;1.364;2022-09-17T11:57:26;20.10;69.80
26408;DHT22;14583;43.604;1.364;2022-09-17T12:08:18;20.20;67.90
26408;DHT22;14583;43.604;1.364;2022-09-17T12:11:11;20.20;69.00
26408;DHT22;14583;43.604;1.364;2022-09-17T12:13:49;20.30;68.20
26408;DHT22;14583;43.604;1.364;2022-09-17T12:16:24;20.30;69.40
26408;DHT22;14583;43.604;1.364;2022-09-17T12:18:54;20.40;68.00
26408;DHT22;14583;43.604;1.364;2022-09-17T12:21:27;20.40;67.20
26408;DHT22;14583;43.604;1.364;2022-09-17T12:24:06;20.30;66.20
26408;DHT22;14583;43.604;1.364;2022-09-17T12:26:49;20.40;66.50
26408;DHT22;14583;43.604;1.364;2022-09-17T12:29:33;20.40;66.40
26408;DHT22;14583;43.604;1.364;2022-09-17T12:40:37;20.50;66.40
26408;DHT22;14583;43.604;1.364;2022-09-17T12:51:28;20.60;65.30
26408;DHT22;14583;43.604;1.364;2022-09-17T12:59:16;20.60;63.40
26408;DHT22;14583;43.604;1.364;2022-09-17T13:04:58;20.70;62.60
26408;DHT22;14583;43.604;1.364;2022-09-17T13:15:40;20.90;62.80
26408;DHT22;14583;43.604;1.364;2022-09-17T13:18:32;20.90;62.20
26408;DHT22;14583;43.604;1.364;2022-09-17T13:24:00;21.00;61.40
26408;DHT22;14583;43.604;1.364;2022-09-17T13:26:36;21.10;61.40
26408;DHT22;14583;43.604;1.364;2022-09-17T13:29:04;21.20;60.60
26408;DHT22;14583;43.604;1.364;2022-09-17T13:34:00;21.20;58.80
26408;DHT22;14583;43.604;1.364;2022-09-17T13:36:44;21.30;58.40
26408;DHT22;14583;43.604;1.364;2022-09-17T13:42:07;21.60;57.30
26408;DHT22;14583;43.604;1.364;2022-09-17T13:44:36;21.70;57.40
26408;DHT22;14583;43.604;1.364;2022-09-17T13:49:57;21.80;57.30
26408;DHT22;14583;43.604;1.364;2022-09-17T13:52:41;22.00;58.50
26408;DHT22;14583;43.604;1.364;2022-09-17T13:55:29;22.10;56.80
26408;DHT22;14583;43.604;1.364;2022-09-17T13:57:57;22.40;57.20
26408;DHT22;14583;43.604;1.364;2022-09-17T14:19:38;22.40;54.90
26408;DHT22;14583;43.604;1.364;2022-09-17T14:22:16;22.60;54.80
26408;DHT22;14583;43.604;1.364;2022-09-17T14:24:50;22.90;55.20
26408;DHT22;14583;43.604;1.364;2022-09-17T14:27:44;22.90;55.20
26408;DHT22;14583;43.604;1.364;2022-09-17T14:30:25;23.00;55.50
26408;DHT22;14583;43.604;1.364;2022-09-17T14:33:17;23.10;55.30
26408;DHT22;14583;43.604;1.364;2022-09-17T14:35:46;23.30;55.20
26408;DHT22;14583;43.604;1.364;2022-09-17T14:38:32;23.40;55.80
26408;DHT22;14583;43.604;1.364;2022-09-17T14:43:53;23.70;54.70
26408;DHT22;14583;43.604;1.364;2022-09-17T14:46:23;23.70;53.80
26408;DHT22;14583;43.604;1.364;2022-09-17T14:48:50;24.10;54.50
26408;DHT22;14583;43.604;1.364;2022-09-17T14:53:49;24.60;54.20
26408;DHT22;14583;43.604;1.364;2022-09-17T14:56:32;24.50;54.00
26408;DHT22;14583;43.604;1.364;2022-09-17T14:59:01;24.70;54.20
26408;DHT22;14583;43.604;1.364;2022-09-17T15:01:30;25.00;54.00
26408;DHT22;14583;43.604;1.364;2022-09-17T15:06:41;25.40;53.50
26408;DHT22;14583;43.604;1.364;2022-09-17T15:09:24;25.60;52.90
26408;DHT22;14583;43.604;1.364;2022-09-17T15:11:53;25.90;52.20
26408;DHT22;14583;43.604;1.364;2022-09-17T15:14:22;26.20;53.20
26408;DHT22;14583;43.604;1.364;2022-09-17T15:16:53;26.50;50.40
26408;DHT22;14583;43.604;1.364;2022-09-17T15:19:26;26.70;51.90
26408;DHT22;14583;43.604;1.364;2022-09-17T15:21:56;27.60;50.90
26408;DHT22;14583;43.604;1.364;2022-09-17T15:29:44;33.20;48.50
26408;DHT22;14583;43.604;1.364;2022-09-17T15:32:11;38.60;44.30
26408;DHT22;14583;43.604;1.364;2022-09-17T15:34:39;41.50;40.60
26408;DHT22;14583;43.604;1.364;2022-09-17T15:39:47;44.70;37.10
26408;DHT22;14583;43.604;1.364;2022-09-17T15:42:22;45.20;35.10
26408;DHT22;14583;43.604;1.364;2022-09-17T15:44:50;44.70;34.40
26408;DHT22;14583;43.604;1.364;2022-09-17T15:50:19;45.90;33.70
26408;DHT22;14583;43.604;1.364;2022-09-17T15:52:45;45.60;33.00
26408;DHT22;14583;43.604;1.364;2022-09-17T15:56:03;45.60;32.80
26408;DHT22;14583;43.604;1.364;2022-09-17T15:58:52;45.30;32.70
26408;DHT22;14583;43.604;1.364;2022-09-17T16:01:43;45.30;33.00
26408;DHT22;14583;43.604;1.364;2022-09-17T16:04:16;45.30;32.50
26408;DHT22;14583;43.604;1.364;2022-09-17T16:09:36;45.30;31.90
26408;DHT22;14583;43.604;1.364;2022-09-17T16:12:03;45.40;31.60
26408;DHT22;14583;43.604;1.364;2022-09-17T16:14:28;45.70;31.50
26408;DHT22;14583;43.604;1.364;2022-09-17T16:16:54;45.50;32.20
26408;DHT22;14583;43.604;1.364;2022-09-17T16:19:21;44.50;31.30
26408;DHT22;14583;43.604;1.364;2022-09-17T16:21:47;44.00;30.90
26408;DHT22;14583;43.604;1.364;2022-09-17T16:24:12;43.80;31.30
26408;DHT22;14583;43.604;1.364;2022-09-17T16:26:39;43.70;31.40
26408;DHT22;14583;43.604;1.364;2022-09-17T16:29:09;43.60;31.30
26408;DHT22;14583;43.604;1.364;2022-09-17T16:31:36;43.40;31.40
26408;DHT22;14583;43.604;1.364;2022-09-17T16:34:01;43.10;31.10
26408;DHT22;14583;43.604;1.364;2022-09-17T16:36:27;42.80;30.90
26408;DHT22;14583;43.604;1.364;2022-09-17T16:38:55;42.30;30.90
26408;DHT22;14583;43.604;1.364;2022-09-17T16:41:21;41.90;30.90
26408;DHT22;14583;43.604;1.364;2022-09-17T16:43:46;41.60;31.10
26408;DHT22;14583;43.604;1.364;2022-09-17T16:46:13;40.70;31.50
26408;DHT22;14583;43.604;1.364;2022-09-17T16:48:39;39.50;32.20
26408;DHT22;14583;43.604;1.364;2022-09-17T16:51:12;37.90;32.50
26408;DHT22;14583;43.604;1.364;2022-09-17T16:53:38;36.30;33.60
26408;DHT22;14583;43.604;1.364;2022-09-17T16:56:08;35.10;33.90
26408;DHT22;14583;43.604;1.364;2022-09-17T16:58:34;33.50;34.80
26408;DHT22;14583;43.604;1.364;2022-09-17T17:01:11;31.10;37.10
26408;DHT22;14583;43.604;1.364;2022-09-17T17:03:38;29.20;38.70
26408;DHT22;14583;43.604;1.364;2022-09-17T17:06:03;28.00;40.10
26408;DHT22;14583;43.604;1.364;2022-09-17T17:08:33;27.10;41.20
26408;DHT22;14583;43.604;1.364;2022-09-17T17:10:59;26.50;41.80
26408;DHT22;14583;43.604;1.364;2022-09-17T17:13:24;26.10;42.70
26408;DHT22;14583;43.604;1.364;2022-09-17T17:15:52;25.60;43.10
26408;DHT22;14583;43.604;1.364;2022-09-17T17:18:21;25.30;43.60
26408;DHT22;14583;43.604;1.364;2022-09-17T17:20:46;25.10;43.70
26408;DHT22;14583;43.604;1.364;2022-09-17T17:23:13;24.90;43.80
26408;DHT22;14583;43.604;1.364;2022-09-17T17:25:39;24.60;43.90
26408;DHT22;14583;43.604;1.364;2022-09-17T17:28:05;24.30;44.70
26408;DHT22;14583;43.604;1.364;2022-09-17T17:30:30;24.10;45.20
26408;DHT22;14583;43.604;1.364;2022-09-17T17:32:57;23.90;45.50
26408;DHT22;14583;43.604;1.364;2022-09-17T17:35:24;23.80;45.60
26408;DHT22;14583;43.604;1.364;2022-09-17T17:37:50;23.60;45.60
26408;DHT22;14583;43.604;1.364;2022-09-17T17:40:16;23.50;46.10
26408;DHT22;14583;43.604;1.364;2022-09-17T17:42:41;23.40;46.60
26408;DHT22;14583;43.604;1.364;2022-09-17T17:45:09;23.20;47.10
26408;DHT22;14583;43.604;1.364;2022-09-17T17:47:35;23.00;47.50
26408;DHT22;14583;43.604;1.364;2022-09-17T17:50:01;22.90;47.60
26408;DHT22;14583;43.604;1.364;2022-09-17T17:52:27;22.90;48.30
26408;DHT22;14583;43.604;1.364;2022-09-17T17:54:53;22.70;48.50
26408;DHT22;14583;43.604;1.364;2022-09-17T17:57:18;22.60;48.80
26408;DHT22;14583;43.604;1.364;2022-09-17T17:59:44;22.40;49.00
26408;DHT22;14583;43.604;1.364;2022-09-17T18:02:10;22.30;49.30
26408;DHT22;14583;43.604;1.364;2022-09-17T18:04:36;22.20;49.90
26408;DHT22;14583;43.604;1.364;2022-09-17T18:07:02;22.20;50.10
26408;DHT22;14583;43.604;1.364;2022-09-17T18:09:27;22.10;50.20
26408;DHT22;14583;43.604;1.364;2022-09-17T18:11:53;22.10;50.20
26408;DHT22;14583;43.604;1.364;2022-09-17T18:14:19;22.00;50.10
26408;DHT22;14583;43.604;1.364;2022-09-17T18:16:44;21.90;50.30
26408;DHT22;14583;43.604;1.364;2022-09-17T18:19:11;21.80;50.50
26408;DHT22;14583;43.604;1.364;2022-09-17T18:21:36;21.70;50.90
26408;DHT22;14583;43.604;1.364;2022-09-17T18:24:02;21.70;51.00
26408;DHT22;14583;43.604;1.364;2022-09-17T18:26:28;21.60;50.80
26408;DHT22;14583;43.604;1.364;2022-09-17T18:28:54;21.50;51.40
26408;DHT22;14583;43.604;1.364;2022-09-17T18:31:30;21.50;51.30
26408;DHT22;14583;43.604;1.364;2022-09-17T18:34:06;21.40;51.20
26408;DHT22;14583;43.604;1.364;2022-09-17T18:36:33;21.40;51.50
26408;DHT22;14583;43.604;1.364;2022-09-17T18:39:01;21.40;51.80
26408;DHT22;14583;43.604;1.364;2022-09-17T18:41:27;21.40;51.60
26408;DHT22;14583;43.604;1.364;2022-09-17T18:43:54;21.30;51.60
26408;DHT22;14583;43.604;1.364;2022-09-17T18:46:20;21.20;51.50
26408;DHT22;14583;43.604;1.364;2022-09-17T18:48:50;21.10;51.90
26408;DHT22;14583;43.604;1.364;2022-09-17T18:51:15;21.10;51.80
26408;DHT22;14583;43.604;1.364;2022-09-17T18:53:41;21.10;51.50
26408;DHT22;14583;43.604;1.364;2022-09-17T18:56:26;21.00;52.10
26408;DHT22;14583;43.604;1.364;2022-09-17T18:58:55;21.00;51.60
26408;DHT22;14583;43.604;1.364;2022-09-17T19:01:24;21.00;51.10
26408;DHT22;14583;43.604;1.364;2022-09-17T19:03:50;20.90;51.60
26408;DHT22;14583;43.604;1.364;2022-09-17T19:06:16;20.90;51.70
26408;DHT22;14583;43.604;1.364;2022-09-17T19:08:43;20.90;51.50
26408;DHT22;14583;43.604;1.364;2022-09-17T19:11:10;20.80;51.80
26408;DHT22;14583;43.604;1.364;2022-09-17T19:13:44;20.80;51.70
26408;DHT22;14583;43.604;1.364;2022-09-17T19:16:11;20.80;51.50
26408;DHT22;14583;43.604;1.364;2022-09-17T19:18:37;20.70;52.20